Météo Nord-Pas-de-Calais   La météo au plus près de chez vous

Station météorologique

Observations météo à Auch (32013)

32013005 122 m Dernier relevé à 20:48
26°C
Humidité 33 % Vent 6.8 km/h 1021.3 hPa

Journée consultée

Jeudi 3 Septembre 2026

Synthèse de la journée

Périodes de référence en UTC

Température maximale

32.2°C

à 17:48

06h 06h

Température minimale

12.6°C

à 07:12

18h 18h

Rafale maximale

23 km/h

à 17:00

00h 00h

Précipitations

0 mm

Cumul quotidien

06h 06h

Ensoleillement

12h 5 mins

Durée quotidienne

00h 00h

Graphiques de la journée

Heure locale Réduire

Données détaillées

Relevés météo

Pas de 6 minutes Afficher les relevés infra-horaires
Relevés météo détaillés à Auch pour le Jeudi 3 Septembre 2026
Heure Température °C Point de rosée °C Humidité % Vent moyen (raf.), km/h Précipitations mm Température à 10 cm °C Température à 20 cm °C Température à 50 cm °C Température à 100 cm °C Visibilité m État du sol   Hauteur neige cm Ensoleillement min Rayonnement global W/m² Pression hPa
20:48 26 °C 12.8 °C 44 % 2 km/h (3 km/h) 0 mm0 mm 25.2 °C 23.9 °C 22.7 °C 21.8 °C 20000 m 0   0 cm 0 min 0 W/m² 1021.4 hPa
20:42 26.6 °C 13.3 °C 44 % 2 km/h (3 km/h) 0 mm0 mm 25.2 °C 23.9 °C 22.7 °C 21.8 °C 20000 m 0   0 cm 0 min 0 W/m² 1021.4 hPa
20:36 27.3 °C 12.5 °C 40 % 2 km/h (4 km/h) 0 mm0 mm 25.2 °C 23.9 °C 22.7 °C 21.8 °C 20000 m 0   0 cm 0 min 0 W/m² 1021.2 hPa
20:30 27.9 °C 11.9 °C 37 % 3 km/h (6 km/h) 0 mm0 mm 25.2 °C 23.9 °C 22.7 °C 21.8 °C 20000 m 0   0 cm 0 min 0 W/m² 1021.2 hPa
20:24 28.4 °C 12.7 °C 38 % 5 km/h (7 km/h) 0 mm0 mm 25.2 °C 23.9 °C 22.7 °C 21.8 °C 20000 m 0   0 cm 0 min 0 W/m² 1021.3 hPa
20:18 28.8 °C 11.4 °C 34 % 6 km/h (7 km/h) 0 mm0 mm 25.2 °C 23.9 °C 22.7 °C 21.8 °C 20000 m 0   0 cm 0 min 0 W/m² 1021.3 hPa
20:12 29.1 °C 11.6 °C 34 % 6 km/h (8 km/h) 0 mm0 mm 25.2 °C 23.9 °C 22.7 °C 21.8 °C 20000 m 0   0 cm 2 min 8.8 W/m² 1021.3 hPa
20:06 29.5 °C 12 °C 34 % 6 km/h (8 km/h) 0 mm0 mm 25.3 °C 23.9 °C 22.7 °C 21.8 °C 20000 m 0   0 cm 6 min 15.2 W/m² 1021.2 hPa
20:00 29.7 °C 12.2 °C 34 % 7 km/h (10 km/h) 0 mm0 mm 25.3 °C 23.8 °C 22.7 °C 21.8 °C 20000 m 0   0 cm 6 min 20.3 W/m² 1021.2 hPa
19:54 29.9 °C 12.3 °C 34 % 8 km/h (11 km/h) 0 mm0 mm 25.3 °C 23.8 °C 22.7 °C 21.8 °C 20000 m 0   0 cm 6 min 25.7 W/m² 1021.2 hPa
19:48 30.5 °C 12.4 °C 33 % 7 km/h (11 km/h) 0 mm0 mm 25.3 °C 23.8 °C 22.7 °C 21.8 °C 20000 m 0   0 cm 6 min 31.6 W/m² 1021.3 hPa
19:42 30.7 °C 11.6 °C 31 % 5 km/h (9 km/h) 0 mm0 mm 25.3 °C 23.8 °C 22.7 °C 21.8 °C 20000 m 0   0 cm 6 min 37.4 W/m² 1021.3 hPa
19:36 30.9 °C 11.8 °C 31 % 6 km/h (10 km/h) 0 mm0 mm 25.3 °C 23.8 °C 22.7 °C 21.8 °C 20000 m 0   0 cm 6 min 44 W/m² 1021.4 hPa
19:30 31 °C 12.4 °C 32 % 7 km/h (10 km/h) 0 mm0 mm 25.3 °C 23.8 °C 22.7 °C 21.8 °C 20000 m 0   0 cm 6 min 50.6 W/m² 1021.3 hPa
19:24 31.1 °C 12 °C 31 % 8 km/h (12 km/h) 0 mm0 mm 25.3 °C 23.8 °C 22.7 °C 21.8 °C 20000 m 0   0 cm 6 min 57.3 W/m² 1021.3 hPa
19:18 31.2 °C 11.6 °C 30 % 10 km/h (15 km/h) 0 mm0 mm 25.3 °C 23.7 °C 22.7 °C 21.8 °C 20000 m 0   0 cm 6 min 64.4 W/m² 1021.3 hPa
19:12 31.3 °C 10.6 °C 28 % 10 km/h (15 km/h) 0 mm0 mm 25.3 °C 23.7 °C 22.7 °C 21.8 °C 20000 m 0   0 cm 6 min 71.4 W/m² 1021.3 hPa
19:06 31.5 °C 11.3 °C 29 % 8 km/h (14 km/h) 0 mm0 mm 25.3 °C 23.7 °C 22.7 °C 21.8 °C 20000 m 0   0 cm 6 min 77.6 W/m² 1021.4 hPa
19:00 31.5 °C 10.8 °C 28 % 8 km/h (15 km/h) 0 mm0 mm 25.3 °C 23.7 °C 22.7 °C 21.8 °C 20000 m 0   0 cm 6 min 84.9 W/m² 1021.3 hPa
18:54 31.6 °C 11.4 °C 29 % 9 km/h (15 km/h) 0 mm0 mm 25.3 °C 23.6 °C 22.7 °C 21.8 °C 20000 m 0   0 cm 6 min 91.4 W/m² 1021.2 hPa
18:48 31.8 °C 11.6 °C 29 % 8 km/h (13 km/h) 0 mm0 mm 25.3 °C 23.6 °C 22.7 °C 21.8 °C 20000 m 0   0 cm 6 min 98.2 W/m² 1021.2 hPa
18:42 32.1 °C 11.8 °C 29 % 5 km/h (13 km/h) 0 mm0 mm 25.3 °C 23.6 °C 22.7 °C 21.8 °C 20000 m 0   0 cm 6 min 105.2 W/m² 1021.3 hPa
18:36 31.7 °C 11.5 °C 29 % 8 km/h (13 km/h) 0 mm0 mm 25.3 °C 23.6 °C 22.7 °C 21.8 °C 20000 m 0   0 cm 6 min 112.2 W/m² 1021.3 hPa
18:30 31.9 °C 11.7 °C 29 % 7 km/h (13 km/h) 0 mm0 mm 25.2 °C 23.6 °C 22.8 °C 21.8 °C 20000 m 0   0 cm 6 min 119 W/m² 1021.4 hPa
18:24 31.9 °C 11.1 °C 28 % 6 km/h (12 km/h) 0 mm0 mm 25.2 °C 23.5 °C 22.7 °C 21.8 °C 20000 m 0   0 cm 6 min 125.8 W/m² 1021.4 hPa
18:18 32 °C 11.2 °C 28 % 5 km/h (12 km/h) 0 mm0 mm 25.2 °C 23.5 °C 22.8 °C 21.8 °C 20000 m 0   0 cm 6 min 132.3 W/m² 1021.4 hPa
18:12 31.7 °C 11 °C 28 % 8 km/h (14 km/h) 0 mm0 mm 25.2 °C 23.5 °C 22.7 °C 21.8 °C 20000 m 0   0 cm 6 min 139.5 W/m² 1021.4 hPa
18:06 31.9 °C 11.1 °C 28 % 10 km/h (16 km/h) 0 mm0 mm 25.1 °C 23.5 °C 22.7 °C 21.8 °C 20000 m 0   0 cm 6 min 146 W/m² 1021.4 hPa
18:00 32 °C 11.7 °C 29 % 10 km/h (18 km/h) 0 mm0 mm 25.2 °C 23.4 °C 22.7 °C 21.8 °C 20000 m 0   0 cm 6 min 152.3 W/m² 1021.4 hPa
17:54 32 °C 11.2 °C 28 % 7 km/h (15 km/h) 0 mm0 mm 25.1 °C 23.4 °C 22.8 °C 21.8 °C 20000 m 0   0 cm 6 min 159.2 W/m² 1021.4 hPa
17:48 32.2 °C 11.4 °C 28 % 8 km/h (16 km/h) 0 mm0 mm 25.1 °C 23.4 °C 22.7 °C 21.8 °C 20000 m 0   0 cm 6 min 165.9 W/m² 1021.4 hPa
17:42 32.1 °C 11.3 °C 28 % 10 km/h (16 km/h) 0 mm0 mm 25.1 °C 23.4 °C 22.8 °C 21.8 °C 20000 m 0   0 cm 6 min 172.2 W/m² 1021.4 hPa
17:36 32 °C 11.7 °C 29 % 10 km/h (23 km/h) 0 mm0 mm 25 °C 23.4 °C 22.8 °C 21.8 °C 20000 m 0   0 cm 6 min 178.8 W/m² 1021.5 hPa
17:30 32.1 °C 11.8 °C 29 % 7 km/h (23 km/h) 0 mm0 mm 25 °C 23.3 °C 22.8 °C 21.8 °C 20000 m 0   0 cm 6 min 184 W/m² 1021.5 hPa
17:24 31.8 °C 11.6 °C 29 % 5 km/h (10 km/h) 0 mm0 mm 25 °C 23.3 °C 22.8 °C 21.8 °C 20000 m 0   0 cm 6 min 189.9 W/m² 1021.5 hPa
17:18 31.9 °C 12.2 °C 30 % 9 km/h (16 km/h) 0 mm0 mm 24.9 °C 23.3 °C 22.8 °C 21.8 °C 20000 m 0   0 cm 6 min 195.8 W/m² 1021.6 hPa
17:12 31.9 °C 12.2 °C 30 % 8 km/h (16 km/h) 0 mm0 mm 24.9 °C 23.3 °C 22.8 °C 21.8 °C 20000 m 0   0 cm 6 min 201.7 W/m² 1021.6 hPa
17:06 32 °C 12.3 °C 30 % 7 km/h (15 km/h) 0 mm0 mm 24.9 °C 23.2 °C 22.8 °C 21.8 °C 20000 m 0   0 cm 6 min 207.6 W/m² 1021.7 hPa
17:00 31.7 °C 12.5 °C 31 % 12 km/h (23 km/h) 0 mm0 mm 24.8 °C 23.2 °C 22.8 °C 21.8 °C 19840 m 0   0 cm 6 min 213.9 W/m² 1021.8 hPa
16:54 31.9 °C 12.7 °C 31 % 10 km/h (18 km/h) 0 mm0 mm 24.8 °C 23.2 °C 22.8 °C 21.8 °C 20000 m 0   0 cm 6 min 219.2 W/m² 1021.8 hPa
16:48 32.1 °C 12.8 °C 31 % 6 km/h (18 km/h) 0 mm0 mm 24.7 °C 23.2 °C 22.8 °C 21.8 °C 20000 m 0   0 cm 6 min 223.6 W/m² 1021.8 hPa
16:42 31.6 °C 11.9 °C 30 % 9 km/h (19 km/h) 0 mm0 mm 24.7 °C 23.2 °C 22.8 °C 21.8 °C 20000 m 0   0 cm 6 min 228.7 W/m² 1022 hPa
16:36 31.3 °C 12.1 °C 31 % 10 km/h (19 km/h) 0 mm0 mm 24.6 °C 23.1 °C 22.8 °C 21.8 °C 20000 m 0   0 cm 6 min 234.8 W/m² 1022.1 hPa
16:30 31.8 °C 12.1 °C 30 % 6 km/h (16 km/h) 0 mm0 mm 24.6 °C 23.1 °C 22.8 °C 21.8 °C 20000 m 0   0 cm 6 min 239 W/m² 1022 hPa
16:24 31.5 °C 12.3 °C 31 % 8 km/h (21 km/h) 0 mm0 mm 24.5 °C 23.1 °C 22.8 °C 21.8 °C 20000 m 0   0 cm 6 min 242.7 W/m² 1022.2 hPa
16:18 31.3 °C 11.1 °C 29 % 8 km/h (15 km/h) 0 mm0 mm 24.5 °C 23.1 °C 22.8 °C 21.8 °C 20000 m 0   0 cm 6 min 246.6 W/m² 1022.2 hPa
16:12 31.2 °C 12.1 °C 31 % 9 km/h (18 km/h) 0 mm0 mm 24.4 °C 23 °C 22.8 °C 21.8 °C 20000 m 0   0 cm 6 min 251.1 W/m² 1022.2 hPa
16:06 31.5 °C 12.8 °C 32 % 7 km/h (18 km/h) 0 mm0 mm 24.4 °C 23 °C 22.8 °C 21.8 °C 20000 m 0   0 cm 6 min 255 W/m² 1022.3 hPa
16:00 31 °C 11.9 °C 31 % 9 km/h (16 km/h) 0 mm0 mm 24.3 °C 23 °C 22.8 °C 21.8 °C 20000 m 0   0 cm 6 min 258.7 W/m² 1022.3 hPa
15:54 31.3 °C 12.6 °C 32 % 6 km/h (16 km/h) 0 mm0 mm 24.2 °C 23 °C 22.8 °C 21.8 °C 20000 m 0   0 cm 6 min 261.7 W/m² 1022.4 hPa
15:48 31.6 °C 11.9 °C 30 % 4 km/h (9 km/h) 0 mm0 mm 24.2 °C 22.9 °C 22.8 °C 21.8 °C 20000 m 0   0 cm 6 min 264.6 W/m² 1022.5 hPa
15:42 31.2 °C 12.1 °C 31 % 4 km/h (9 km/h) 0 mm0 mm 24.2 °C 22.9 °C 22.8 °C 21.8 °C 20000 m 0   0 cm 6 min 267 W/m² 1022.6 hPa
15:36 31.2 °C 12.1 °C 31 % 4 km/h (7 km/h) 0 mm0 mm 24.1 °C 23 °C 22.9 °C 21.8 °C 20000 m 0   0 cm 6 min 269.8 W/m² 1022.6 hPa
15:30 30.7 °C 12.6 °C 33 % 5 km/h (12 km/h) 0 mm0 mm 24 °C 22.9 °C 22.8 °C 21.8 °C 20000 m 0   0 cm 6 min 273.9 W/m² 1022.6 hPa
15:24 30.6 °C 12.5 °C 33 % 8 km/h (14 km/h) 0 mm0 mm 24 °C 22.9 °C 22.8 °C 21.8 °C 20000 m 0   0 cm 6 min 277.1 W/m² 1022.7 hPa
15:18 30.4 °C 12.8 °C 34 % 8 km/h (15 km/h) 0 mm0 mm 23.9 °C 22.9 °C 22.8 °C 21.8 °C 20000 m 0   0 cm 6 min 281 W/m² 1022.7 hPa
15:12 30.6 °C 12.5 °C 33 % 5 km/h (11 km/h) 0 mm0 mm 23.9 °C 22.9 °C 22.9 °C 21.8 °C 20000 m 0   0 cm 6 min 282.9 W/m² 1022.7 hPa
15:06 30.4 °C 12.3 °C 33 % 4 km/h (9 km/h) 0 mm0 mm 23.8 °C 22.8 °C 22.8 °C 21.8 °C 20000 m 0   0 cm 6 min 285.5 W/m² 1022.8 hPa
15:00 30.3 °C 13.6 °C 36 % 6 km/h (15 km/h) 0 mm0 mm 23.7 °C 22.8 °C 22.8 °C 21.8 °C 19670 m 0   0 cm 6 min 287.4 W/m² 1022.9 hPa
14:54 29.7 °C 12.6 °C 35 % 9 km/h (15 km/h) 0 mm0 mm 23.7 °C 22.8 °C 22.8 °C 21.8 °C 20000 m 0   0 cm 6 min 290.4 W/m² 1023 hPa
14:48 29.9 °C 13.2 °C 36 % 8 km/h (14 km/h) 0 mm0 mm 23.6 °C 22.8 °C 22.8 °C 21.8 °C 20000 m 0   0 cm 6 min 292 W/m² 1023 hPa
14:42 30.3 °C 13.6 °C 36 % 5 km/h (12 km/h) 0 mm0 mm 23.5 °C 22.8 °C 22.9 °C 21.8 °C 20000 m 0   0 cm 6 min 292.7 W/m² 1023.1 hPa
14:36 29.7 °C 13.9 °C 38 % 7 km/h (13 km/h) 0 mm0 mm 23.5 °C 22.7 °C 22.8 °C 21.8 °C 19800 m 0   0 cm 6 min 295.4 W/m² 1023.3 hPa
14:30 30 °C 14.1 °C 38 % 6 km/h (13 km/h) 0 mm0 mm 23.4 °C 22.7 °C 22.9 °C 21.8 °C 19800 m 0   0 cm 6 min 296.4 W/m² 1023.2 hPa
14:24 30 °C 14.5 °C 39 % 6 km/h (12 km/h) 0 mm0 mm 23.4 °C 22.7 °C 22.8 °C 21.8 °C 19980 m 0   0 cm 6 min 296.9 W/m² 1023.2 hPa
14:18 29.8 °C 14.4 °C 39 % 5 km/h (12 km/h) 0 mm0 mm 23.3 °C 22.7 °C 22.8 °C 21.8 °C 20000 m 0   0 cm 6 min 297.5 W/m² 1023.2 hPa
14:12 29.5 °C 14.9 °C 41 % 4 km/h (9 km/h) 0 mm0 mm 23.3 °C 22.7 °C 22.8 °C 21.8 °C 20000 m 0   0 cm 6 min 297.9 W/m² 1023.4 hPa
14:06 29.1 °C 14.5 °C 41 % 8 km/h (15 km/h) 0 mm0 mm 23.2 °C 22.7 °C 22.8 °C 21.8 °C 20000 m 0   0 cm 6 min 298 W/m² 1023.5 hPa
14:00 29 °C 14.8 °C 42 % 8 km/h (15 km/h) 0 mm0 mm 23.1 °C 22.7 °C 22.9 °C 21.8 °C 20000 m 0   0 cm 6 min 297.6 W/m² 1023.6 hPa
13:54 28.7 °C 14.5 °C 42 % 5 km/h (11 km/h) 0 mm0 mm 23.1 °C 22.7 °C 22.9 °C 21.8 °C 20000 m 0   0 cm 6 min 297.4 W/m² 1023.6 hPa
13:48 28.7 °C 14.5 °C 42 % 4 km/h (8 km/h) 0 mm0 mm 23 °C 22.7 °C 22.9 °C 21.8 °C 19610 m 0   0 cm 6 min 296.9 W/m² 1023.6 hPa
13:42 28.5 °C 14.7 °C 43 % 8 km/h (14 km/h) 0 mm0 mm 23 °C 22.7 °C 22.9 °C 21.8 °C 19790 m 0   0 cm 6 min 297.2 W/m² 1023.7 hPa
13:36 28.2 °C 14.4 °C 43 % 8 km/h (14 km/h) 0 mm0 mm 22.9 °C 22.6 °C 22.8 °C 21.8 °C 19620 m 0   0 cm 6 min 296.2 W/m² 1023.7 hPa
13:30 28.2 °C 15.1 °C 45 % 5 km/h (10 km/h) 0 mm0 mm 22.9 °C 22.6 °C 22.8 °C 21.8 °C 19610 m 0   0 cm 6 min 294.9 W/m² 1023.8 hPa
13:24 27.7 °C 14.3 °C 44 % 5 km/h (10 km/h) 0 mm0 mm 22.8 °C 22.6 °C 22.9 °C 21.8 °C 20000 m 0   0 cm 6 min 293.6 W/m² 1024 hPa
13:18 27.6 °C 14.6 °C 45 % 6 km/h (10 km/h) 0 mm0 mm 22.7 °C 22.6 °C 22.9 °C 21.8 °C 20000 m 0   0 cm 6 min 292.2 W/m² 1024 hPa
13:12 27.6 °C 14.9 °C 46 % 6 km/h (10 km/h) 0 mm0 mm 22.7 °C 22.6 °C 22.9 °C 21.8 °C 20000 m 0   0 cm 6 min 290.5 W/m² 1024.1 hPa
13:06 27.4 °C 14.4 °C 45 % 7 km/h (12 km/h) 0 mm0 mm 22.7 °C 22.6 °C 22.9 °C 21.8 °C 20000 m 0   0 cm 6 min 288.7 W/m² 1024.2 hPa
13:00 27.2 °C 14.6 °C 46 % 7 km/h (14 km/h) 0 mm0 mm 22.6 °C 22.6 °C 22.9 °C 21.8 °C 20000 m 0   0 cm 6 min 286.7 W/m² 1024.3 hPa
12:54 27 °C 14.1 °C 45 % 6 km/h (12 km/h) 0 mm0 mm 22.6 °C 22.6 °C 22.9 °C 21.8 °C 20000 m 0   0 cm 6 min 284.5 W/m² 1024.3 hPa
12:48 26.8 °C 14.2 °C 46 % 6 km/h (12 km/h) 0 mm0 mm 22.5 °C 22.6 °C 22.9 °C 21.8 °C 20000 m 0   0 cm 6 min 282.3 W/m² 1024.4 hPa
12:42 27.1 °C 14.5 °C 46 % 6 km/h (12 km/h) 0 mm0 mm 22.5 °C 22.6 °C 22.9 °C 21.8 °C 20000 m 0   0 cm 6 min 279.9 W/m² 1024.5 hPa
12:36 26.8 °C 14.2 °C 46 % 6 km/h (14 km/h) 0 mm0 mm 22.5 °C 22.6 °C 22.9 °C 21.8 °C 20000 m 0   0 cm 6 min 277.2 W/m² 1024.7 hPa
12:30 26.8 °C 14.5 °C 47 % 7 km/h (12 km/h) 0 mm0 mm 22.4 °C 22.6 °C 22.9 °C 21.8 °C 20000 m 0   0 cm 6 min 273.6 W/m² 1024.7 hPa
12:24 26.7 °C 15.1 °C 49 % 8 km/h (13 km/h) 0 mm0 mm 22.4 °C 22.6 °C 22.9 °C 21.8 °C 20000 m 0   0 cm 6 min 270.7 W/m² 1024.7 hPa
12:18 26.3 °C 15 °C 50 % 8 km/h (15 km/h) 0 mm0 mm 22.3 °C 22.6 °C 22.9 °C 21.8 °C 20000 m 0   0 cm 6 min 267.2 W/m² 1024.7 hPa
12:12 26.2 °C 15 °C 50 % 7 km/h (13 km/h) 0 mm0 mm 22.3 °C 22.6 °C 22.9 °C 21.8 °C 20000 m 0   0 cm 6 min 263.8 W/m² 1024.8 hPa
12:06 26.4 °C 15.1 °C 50 % 5 km/h (12 km/h) 0 mm0 mm 22.3 °C 22.6 °C 22.9 °C 21.8 °C 20000 m 0   0 cm 6 min 259.8 W/m² 1024.9 hPa
12:00 26.4 °C 14.8 °C 49 % 4 km/h (10 km/h) 0 mm0 mm 22.2 °C 22.6 °C 22.9 °C 21.8 °C 20000 m 0   0 cm 6 min 256.1 W/m² 1024.9 hPa
11:54 26 °C 14.8 °C 50 % 6 km/h (13 km/h) 0 mm0 mm 22.2 °C 22.6 °C 22.9 °C 21.8 °C 20000 m 0   0 cm 6 min 252.6 W/m² 1025 hPa
11:48 25.7 °C 15.1 °C 52 % 6 km/h (13 km/h) 0 mm0 mm 22.1 °C 22.7 °C 22.9 °C 21.8 °C 20000 m 0   0 cm 6 min 248.2 W/m² 1025 hPa
11:42 25.7 °C 14.5 °C 50 % 4 km/h (8 km/h) 0 mm0 mm 22.2 °C 22.7 °C 22.9 °C 21.8 °C 20000 m 0   0 cm 6 min 243.1 W/m² 1025.1 hPa
11:36 26 °C 14.8 °C 50 % 3 km/h (7 km/h) 0 mm0 mm 22.1 °C 22.7 °C 22.9 °C 21.8 °C 19800 m 0   0 cm 6 min 236.1 W/m² 1025.1 hPa
11:30 26 °C 15.1 °C 51 % 4 km/h (6 km/h) 0 mm0 mm 22.1 °C 22.7 °C 22.9 °C 21.8 °C 19800 m 0   0 cm 6 min 234.5 W/m² 1025.1 hPa
11:24 25.6 °C 15.3 °C 53 % 3 km/h (6 km/h) 0 mm0 mm 22.1 °C 22.7 °C 22.9 °C 21.8 °C 20000 m 0   0 cm 6 min 229.3 W/m² 1025.1 hPa
11:18 24.9 °C 15.2 °C 55 % 2 km/h (5 km/h) 0 mm0 mm 22.1 °C 22.7 °C 22.9 °C 21.8 °C 19970 m 0   0 cm 6 min 224.2 W/m² 1025.2 hPa
11:12 24.6 °C 15 °C 55 % 4 km/h (7 km/h) 0 mm0 mm 22 °C 22.7 °C 22.9 °C 21.8 °C 19970 m 0   0 cm 6 min 219.4 W/m² 1025.2 hPa
11:06 24.4 °C 15.1 °C 56 % 3 km/h (7 km/h) 0 mm0 mm 22 °C 22.7 °C 22.9 °C 21.8 °C 20000 m 0   0 cm 6 min 213.3 W/m² 1025.2 hPa
11:00 24.1 °C 14.8 °C 56 % 3 km/h (8 km/h) 0 mm0 mm 22 °C 22.7 °C 22.9 °C 21.8 °C 19320 m 0   0 cm 6 min 208.3 W/m² 1025.3 hPa
10:54 23.8 °C 15 °C 58 % 4 km/h (9 km/h) 0 mm0 mm 22.1 °C 22.7 °C 22.9 °C 21.8 °C 19320 m 0   0 cm 6 min 203.1 W/m² 1025.3 hPa
10:48 23.5 °C 14.8 °C 58 % 4 km/h (9 km/h) 0 mm0 mm 22 °C 22.7 °C 22.9 °C 21.8 °C 20000 m 0   0 cm 6 min 197.4 W/m² 1025.3 hPa
10:42 23.3 °C 15.1 °C 60 % 4 km/h (9 km/h) 0 mm0 mm 22 °C 22.7 °C 22.9 °C 21.8 °C 20000 m 0   0 cm 6 min 191.4 W/m² 1025.3 hPa
10:36 23 °C 15.3 °C 62 % 5 km/h (9 km/h) 0 mm0 mm 22 °C 22.7 °C 22.9 °C 21.8 °C 20000 m 0   0 cm 6 min 185.8 W/m² 1025.3 hPa
10:30 22.8 °C 15.1 °C 62 % 3 km/h (8 km/h) 0 mm0 mm 21.9 °C 22.7 °C 22.9 °C 21.8 °C 20000 m 0   0 cm 6 min 178.9 W/m² 1025.3 hPa
10:24 22.4 °C 15.3 °C 64 % 2 km/h (6 km/h) 0 mm0 mm 22 °C 22.7 °C 22.9 °C 21.8 °C 20000 m 0   0 cm 6 min 168.1 W/m² 1025.4 hPa
10:18 22.1 °C 15 °C 64 % 4 km/h (6 km/h) 0 mm0 mm 22 °C 22.8 °C 22.9 °C 21.8 °C 20000 m 0   0 cm 6 min 167.3 W/m² 1025.4 hPa
10:12 21.8 °C 14.9 °C 65 % 3 km/h (6 km/h) 0 mm0 mm 21.9 °C 22.8 °C 22.9 °C 21.8 °C 20000 m 0   0 cm 6 min 161.1 W/m² 1025.4 hPa
10:06 21.4 °C 14.8 °C 66 % 3 km/h (6 km/h) 0 mm0 mm 22 °C 22.8 °C 22.9 °C 21.8 °C 20000 m 0   0 cm 6 min 154.6 W/m² 1025.4 hPa
10:00 21.2 °C 14.8 °C 67 % 4 km/h (7 km/h) 0 mm0 mm 22 °C 22.8 °C 22.9 °C 21.8 °C 20000 m 0   0 cm 6 min 148.2 W/m² 1025.4 hPa
09:54 20.8 °C 14.7 °C 68 % 3 km/h (6 km/h) 0 mm0 mm 22 °C 22.8 °C 22.9 °C 21.8 °C 20000 m 0   0 cm 6 min 141.5 W/m² 1025.4 hPa
09:48 20.4 °C 14.5 °C 69 % 3 km/h (7 km/h) 0 mm0 mm 22 °C 22.9 °C 23 °C 21.8 °C 20000 m 0   0 cm 6 min 134.8 W/m² 1025.4 hPa
09:42 20.1 °C 14.9 °C 72 % 4 km/h (7 km/h) 0 mm0 mm 22 °C 22.9 °C 22.9 °C 21.8 °C 20000 m 0   0 cm 6 min 128.5 W/m² 1025.5 hPa
09:36 19.6 °C 14.6 °C 73 % 5 km/h (7 km/h) 0 mm0 mm 21.9 °C 22.9 °C 23 °C 21.8 °C 20000 m 0   0 cm 6 min 121.7 W/m² 1025.5 hPa
09:30 19.3 °C 14.8 °C 75 % 5 km/h (8 km/h) 0 mm0 mm 22 °C 22.9 °C 22.9 °C 21.8 °C 20000 m 0   0 cm 6 min 114.9 W/m² 1025.4 hPa
09:24 18.8 °C 14.5 °C 76 % 5 km/h (8 km/h) 0 mm0 mm 22 °C 22.9 °C 22.9 °C 21.8 °C 20000 m 0   0 cm 6 min 108.2 W/m² 1025.4 hPa
09:18 18.7 °C 14.6 °C 77 % 4 km/h (7 km/h) 0 mm0 mm 22 °C 22.9 °C 22.9 °C 21.8 °C 20000 m 0   0 cm 6 min 101 W/m² 1025.4 hPa
09:12 18.3 °C 14.6 °C 79 % 3 km/h (5 km/h) 0 mm0 mm 22.1 °C 22.9 °C 22.9 °C 21.8 °C 20000 m 0   0 cm 6 min 94.1 W/m² 1025.5 hPa
09:06 17.9 °C 14.8 °C 82 % 3 km/h (5 km/h) 0 mm0 mm 22.1 °C 22.9 °C 22.9 °C 21.8 °C 20000 m 0   0 cm 6 min 87 W/m² 1025.6 hPa
09:00 17.2 °C 14.5 °C 84 % 3 km/h (4 km/h) 0 mm0 mm 22.1 °C 23 °C 22.9 °C 21.8 °C 20000 m 0   0 cm 6 min 80.1 W/m² 1025.7 hPa
08:54 16.5 °C 14.1 °C 86 % 2 km/h (3 km/h) 0 mm0 mm 22.1 °C 23 °C 22.9 °C 21.8 °C 20000 m 0   0 cm 6 min 73.1 W/m² 1025.6 hPa
08:48 16.1 °C 14.1 °C 88 % 3 km/h (4 km/h) 0 mm0 mm 22.1 °C 23 °C 22.9 °C 21.8 °C 20000 m 0   0 cm 6 min 66.3 W/m² 1025.7 hPa
08:42 15.6 °C 14.1 °C 91 % 0 km/h (4 km/h) 0 mm0 mm 22.1 °C 23 °C 22.9 °C 21.8 °C 20000 m 0   0 cm 6 min 59.6 W/m² 1025.6 hPa
08:36 15.2 °C 14.1 °C 93 % 0 km/h (0 km/h) 0 mm0 mm 22.2 °C 23 °C 22.9 °C 21.8 °C 20000 m 0   0 cm 6 min 53.2 W/m² 1025.6 hPa
08:30 14.9 °C 13.9 °C 94 % 0 km/h (3 km/h) 0 mm0 mm 22.2 °C 23 °C 22.9 °C 21.8 °C 20000 m 0   0 cm 6 min 46.8 W/m² 1025.6 hPa
08:24 14.5 °C 13.7 °C 95 % 2 km/h (3 km/h) 0 mm0 mm 22.2 °C 23 °C 22.9 °C 21.8 °C 20000 m 0   0 cm 4 min 34.6 W/m² 1025.7 hPa
08:18 14.3 °C 13.8 °C 97 % 3 km/h (4 km/h) 0 mm0 mm 22.2 °C 23.1 °C 22.9 °C 21.8 °C 20000 m 0   0 cm 4 min 27.6 W/m² 1025.7 hPa
08:12 13.8 °C 13.2 °C 96 % 4 km/h (4 km/h) 0 mm0 mm 22.2 °C 23.1 °C 23 °C 21.8 °C 20000 m 0   0 cm 6 min 27.9 W/m² 1025.7 hPa
08:06 13.5 °C 12.7 °C 95 % 3 km/h (4 km/h) 0 mm0 mm 22.3 °C 23.1 °C 22.9 °C 21.8 °C 20000 m 0   0 cm 6 min 22.1 W/m² 1025.7 hPa
08:00 13.3 °C 12.5 °C 95 % 2 km/h (3 km/h) 0 mm0 mm 22.3 °C 23.1 °C 22.9 °C 21.8 °C 20000 m 0   0 cm 1 min 12.6 W/m² 1025.6 hPa
07:54 13.2 °C 12.6 °C 96 % 2 km/h (3 km/h) 0 mm0 mm 22.3 °C 23.1 °C 22.9 °C 21.8 °C 20000 m 0   0 cm 0 min 2.5 W/m² 1025.5 hPa
07:48 13.1 °C 12.5 °C 96 % 0 km/h (2 km/h) 0 mm0 mm 22.3 °C 23.1 °C 22.9 °C 21.8 °C 20000 m 0   0 cm 0 min 0 W/m² 1025.5 hPa
07:42 13 °C 12.4 °C 96 % 0 km/h (0 km/h) 0 mm0 mm 22.4 °C 23.2 °C 22.9 °C 21.8 °C 20000 m 0   0 cm 0 min 0 W/m² 1025.5 hPa
07:36 13 °C 12.2 °C 95 % 0 km/h (2 km/h) 0 mm0 mm 22.4 °C 23.2 °C 22.9 °C 21.8 °C 20000 m 0   0 cm 0 min 0 W/m² 1025.4 hPa
07:30 12.9 °C 12 °C 94 % 0 km/h (3 km/h) 0 mm0 mm 22.4 °C 23.2 °C 22.9 °C 21.8 °C 20000 m 0   0 cm 0 min 0 W/m² 1025.3 hPa
07:24 12.9 °C 12 °C 94 % 2 km/h (4 km/h) 0 mm0 mm 22.4 °C 23.2 °C 22.9 °C 21.8 °C 20000 m 0   0 cm 0 min 0 W/m² 1025.2 hPa
07:18 13 °C 12.2 °C 95 % 4 km/h (7 km/h) 0 mm0 mm 22.4 °C 23.2 °C 22.9 °C 21.8 °C 20000 m 0   0 cm 0 min 0 W/m² 1025.2 hPa
07:12 12.6 °C 11.5 °C 93 % 4 km/h (7 km/h) 0 mm0 mm 22.4 °C 23.2 °C 22.9 °C 21.8 °C 20000 m 0   0 cm 0 min 0 W/m² 1025.2 hPa
07:06 13 °C 11.9 °C 93 % 3 km/h (4 km/h) 0 mm0 mm 22.5 °C 23.3 °C 22.9 °C 21.8 °C 20000 m 0   0 cm 0 min 0 W/m² 1025 hPa
07:00 13.2 °C 11.9 °C 92 % 3 km/h (4 km/h) 0 mm0 mm 22.5 °C 23.2 °C 22.9 °C 21.8 °C 20000 m 0   0 cm 0 min 0 W/m² 1025 hPa
06:54 13.4 °C 12.3 °C 93 % 3 km/h (4 km/h) 0 mm0 mm 22.5 °C 23.3 °C 22.9 °C 21.8 °C 20000 m 0   0 cm 0 min 0 W/m² 1025 hPa
06:48 13.5 °C 12.4 °C 93 % 0 km/h (3 km/h) 0 mm0 mm 22.5 °C 23.3 °C 22.9 °C 21.8 °C 20000 m 0   0 cm 0 min 0 W/m² 1025 hPa
06:42 13.7 °C 12.6 °C 93 % 2 km/h (3 km/h) 0 mm0 mm 22.6 °C 23.3 °C 22.9 °C 21.8 °C 20000 m 0   0 cm 0 min 0 W/m² 1025 hPa
06:36 13.7 °C 12.6 °C 93 % 2 km/h (3 km/h) 0 mm0 mm 22.6 °C 23.3 °C 22.9 °C 21.8 °C 20000 m 0   0 cm 0 min 0 W/m² 1025 hPa
06:30 13.6 °C 12.5 °C 93 % 0 km/h (0 km/h) 0 mm0 mm 22.6 °C 23.3 °C 22.9 °C 21.8 °C 20000 m 0   0 cm 0 min 0 W/m² 1024.8 hPa
06:24 13.6 °C 12.3 °C 92 % 0 km/h (2 km/h) 0 mm0 mm 22.7 °C 23.3 °C 22.9 °C 21.8 °C 20000 m 0   0 cm 0 min 0 W/m² 1024.8 hPa
06:18 13.7 °C 12.4 °C 92 % 2 km/h (4 km/h) 0 mm0 mm 22.7 °C 23.3 °C 22.9 °C 21.8 °C 20000 m 0   0 cm 0 min 0 W/m² 1024.8 hPa
06:12 13.7 °C 12.4 °C 92 % 3 km/h (4 km/h) 0 mm0 mm 22.7 °C 23.4 °C 23 °C 21.8 °C 20000 m 0   0 cm 0 min 0 W/m² 1024.8 hPa
06:06 13.9 °C 12.6 °C 92 % 3 km/h (4 km/h) 0 mm0 mm 22.7 °C 23.4 °C 22.9 °C 21.8 °C 20000 m 0   0 cm 0 min 0 W/m² 1024.7 hPa
06:00 13.9 °C 12.6 °C 92 % 3 km/h (4 km/h) 0 mm0 mm 22.7 °C 23.4 °C 22.9 °C 21.8 °C 20000 m 0   0 cm 0 min 0 W/m² 1024.7 hPa
05:54 13.9 °C 12.5 °C 91 % 3 km/h (4 km/h) 0 mm0 mm 22.7 °C 23.4 °C 23 °C 21.8 °C 20000 m 0   0 cm 0 min 0 W/m² 1024.7 hPa
05:48 14.1 °C 12.8 °C 92 % 2 km/h (4 km/h) 0 mm0 mm 22.8 °C 23.4 °C 22.9 °C 21.8 °C 20000 m 0   0 cm 0 min 0 W/m² 1024.8 hPa
05:42 13.9 °C 12.5 °C 91 % 3 km/h (4 km/h) 0 mm0 mm 22.8 °C 23.4 °C 22.9 °C 21.8 °C 20000 m 0   0 cm 0 min 0 W/m² 1024.9 hPa
05:36 13.9 °C 12.5 °C 91 % 4 km/h (5 km/h) 0 mm0 mm 22.9 °C 23.4 °C 22.9 °C 21.8 °C 20000 m 0   0 cm 0 min 0 W/m² 1024.9 hPa
05:30 13.9 °C 12.3 °C 90 % 5 km/h (6 km/h) 0 mm0 mm 22.9 °C 23.5 °C 22.9 °C 21.8 °C 20000 m 0   0 cm 0 min 0 W/m² 1024.9 hPa
05:24 14.1 °C 12.5 °C 90 % 4 km/h (6 km/h) 0 mm0 mm 22.9 °C 23.5 °C 22.9 °C 21.8 °C 20000 m 0   0 cm 0 min 0 W/m² 1024.9 hPa
05:18 14.2 °C 12.4 °C 89 % 4 km/h (4 km/h) 0 mm0 mm 22.9 °C 23.5 °C 22.9 °C 21.8 °C 20000 m 0   0 cm 0 min 0 W/m² 1025 hPa
05:12 14.3 °C 12.5 °C 89 % 3 km/h (4 km/h) 0 mm0 mm 22.9 °C 23.5 °C 22.9 °C 21.8 °C 20000 m 0   0 cm 0 min 0 W/m² 1024.9 hPa
05:06 14.3 °C 12.3 °C 88 % 4 km/h (5 km/h) 0 mm0 mm 22.9 °C 23.5 °C 22.9 °C 21.8 °C 20000 m 0   0 cm 0 min 0 W/m² 1024.9 hPa
05:00 14.5 °C 12.7 °C 89 % 4 km/h (5 km/h) 0 mm0 mm 23 °C 23.5 °C 22.9 °C 21.8 °C 20000 m 0   0 cm 0 min 0 W/m² 1024.9 hPa
04:54 14.5 °C 12.7 °C 89 % 4 km/h (4 km/h) 0 mm0 mm 23 °C 23.6 °C 22.9 °C 21.8 °C 20000 m 0   0 cm 0 min 0 W/m² 1024.8 hPa
04:48 14.6 °C 12.5 °C 87 % 3 km/h (4 km/h) 0 mm0 mm 23.1 °C 23.5 °C 22.9 °C 21.8 °C 20000 m 0   0 cm 0 min 0 W/m² 1024.8 hPa
04:42 14.8 °C 12.7 °C 87 % 3 km/h (3 km/h) 0 mm0 mm 23.1 °C 23.5 °C 22.9 °C 21.8 °C 20000 m 0   0 cm 0 min 0 W/m² 1024.8 hPa
04:36 14.8 °C 12.7 °C 87 % 3 km/h (5 km/h) 0 mm0 mm 23.1 °C 23.6 °C 22.9 °C 21.8 °C 20000 m 0   0 cm 0 min 0 W/m² 1024.8 hPa
04:30 14.9 °C 12.8 °C 87 % 5 km/h (6 km/h) 0 mm0 mm 23.1 °C 23.6 °C 22.9 °C 21.8 °C 20000 m 0   0 cm 0 min 0 W/m² 1024.8 hPa
04:24 14.9 °C 12.4 °C 85 % 5 km/h (6 km/h) 0 mm0 mm 23.1 °C 23.6 °C 22.9 °C 21.8 °C 20000 m 0   0 cm 0 min 0 W/m² 1024.7 hPa
04:18 15.5 °C 12.8 °C 84 % 4 km/h (5 km/h) 0 mm0 mm 23.2 °C 23.6 °C 22.9 °C 21.8 °C 20000 m 0   0 cm 0 min 0 W/m² 1024.8 hPa
04:12 15.7 °C 12.8 °C 83 % 2 km/h (4 km/h) 0 mm0 mm 23.2 °C 23.6 °C 22.9 °C 21.8 °C 20000 m 0   0 cm 0 min 0 W/m² 1024.7 hPa
04:06 15.7 °C 12.8 °C 83 % 0 km/h (4 km/h) 0 mm0 mm 23.2 °C 23.7 °C 22.9 °C 21.8 °C 20000 m 0   0 cm 0 min 0 W/m² 1024.7 hPa
04:00 15.8 °C 13.1 °C 84 % 0 km/h (4 km/h) 0 mm0 mm 23.2 °C 23.7 °C 22.9 °C 21.8 °C 20000 m 0   0 cm 0 min 0 W/m² 1024.8 hPa
03:54 15.6 °C 12.9 °C 84 % 0 km/h (2 km/h) 0 mm0 mm 23.3 °C 23.7 °C 22.9 °C 21.8 °C 20000 m 0   0 cm 0 min 0 W/m² 1024.8 hPa
03:48 15.5 °C 12.6 °C 83 % 0 km/h (3 km/h) 0 mm0 mm 23.3 °C 23.6 °C 22.9 °C 21.8 °C 20000 m 0   0 cm 0 min 0 W/m² 1024.8 hPa
03:42 15.7 °C 13 °C 84 % 3 km/h (5 km/h) 0 mm0 mm 23.3 °C 23.7 °C 22.9 °C 21.8 °C 20000 m 0   0 cm 0 min 0 W/m² 1024.8 hPa
03:36 15.5 °C 12.6 °C 83 % 4 km/h (5 km/h) 0 mm0 mm 23.4 °C 23.7 °C 22.9 °C 21.8 °C 20000 m 0   0 cm 0 min 0 W/m² 1024.9 hPa
03:30 15.7 °C 12.8 °C 83 % 2 km/h (4 km/h) 0 mm0 mm 23.4 °C 23.7 °C 22.9 °C 21.8 °C 20000 m 0   0 cm 0 min 0 W/m² 1024.9 hPa
03:24 15.9 °C 13.2 °C 84 % 2 km/h (3 km/h) 0 mm0 mm 23.4 °C 23.7 °C 22.9 °C 21.8 °C 20000 m 0   0 cm 0 min 0 W/m² 1024.9 hPa
03:18 15.9 °C 13.2 °C 84 % 2 km/h (4 km/h) 0 mm0 mm 23.4 °C 23.8 °C 22.9 °C 21.8 °C 20000 m 0   0 cm 0 min 0 W/m² 1024.9 hPa
03:12 15.9 °C 13 °C 83 % 3 km/h (5 km/h) 0 mm0 mm 23.5 °C 23.8 °C 22.9 °C 21.8 °C 20000 m 0   0 cm 0 min 0 W/m² 1024.9 hPa
03:06 15.8 °C 12.9 °C 83 % 3 km/h (6 km/h) 0 mm0 mm 23.5 °C 23.8 °C 22.9 °C 21.8 °C 20000 m 0   0 cm 0 min 0 W/m² 1024.9 hPa
03:00 15.4 °C 12.5 °C 83 % 4 km/h (6 km/h) 0 mm0 mm 23.5 °C 23.8 °C 22.9 °C 21.8 °C 20000 m 0   0 cm 0 min 0 W/m² 1024.9 hPa
02:54 15.8 °C 13.1 °C 84 % 3 km/h (5 km/h) 0 mm0 mm 23.5 °C 23.8 °C 22.9 °C 21.8 °C 20000 m 0   0 cm 0 min 0 W/m² 1024.8 hPa
02:48 15.6 °C 13.3 °C 86 % 2 km/h (4 km/h) 0 mm0 mm 23.6 °C 23.8 °C 22.9 °C 21.8 °C 20000 m 0   0 cm 0 min 0 W/m² 1024.8 hPa
02:42 15.3 °C 12.8 °C 85 % 4 km/h (6 km/h) 0 mm0 mm 23.6 °C 23.8 °C 22.9 °C 21.8 °C 20000 m 0   0 cm 0 min 0 W/m² 1024.8 hPa
02:36 15.4 °C 12.7 °C 84 % 5 km/h (6 km/h) 0 mm0 mm 23.6 °C 23.9 °C 22.9 °C 21.8 °C 20000 m 0   0 cm 0 min 0 W/m² 1024.9 hPa
02:30 15.6 °C 12.9 °C 84 % 5 km/h (6 km/h) 0 mm0 mm 23.6 °C 23.8 °C 22.9 °C 21.8 °C 20000 m 0   0 cm 0 min 0 W/m² 1024.9 hPa
02:24 15.8 °C 13.1 °C 84 % 4 km/h (6 km/h) 0 mm0 mm 23.7 °C 23.9 °C 22.9 °C 21.8 °C 20000 m 0   0 cm 0 min 0 W/m² 1024.8 hPa
02:18 16 °C 13.1 °C 83 % 4 km/h (5 km/h) 0 mm0 mm 23.7 °C 23.9 °C 22.9 °C 21.8 °C 20000 m 0   0 cm 0 min 0 W/m² 1024.7 hPa
02:12 16.3 °C 13.6 °C 84 % 4 km/h (5 km/h) 0 mm0 mm 23.7 °C 23.9 °C 22.9 °C 21.8 °C 20000 m 0   0 cm 0 min 0 W/m² 1024.6 hPa
02:06 16.3 °C 13 °C 81 % 4 km/h (5 km/h) 0 mm0 mm 23.8 °C 23.9 °C 22.9 °C 21.8 °C 20000 m 0   0 cm 0 min 0 W/m² 1024.6 hPa
02:00 16.7 °C 13.4 °C 81 % 4 km/h (5 km/h) 0 mm0 mm 23.8 °C 23.9 °C 22.9 °C 21.8 °C 20000 m 0   0 cm 0 min 0 W/m² 1024.6 hPa
01:54 16.8 °C 13.5 °C 81 % 3 km/h (4 km/h) 0 mm0 mm 23.8 °C 23.9 °C 22.9 °C 21.8 °C 20000 m 0   0 cm 0 min 0 W/m² 1024.5 hPa
01:48 16.9 °C 13.6 °C 81 % 3 km/h (3 km/h) 0 mm0 mm 23.8 °C 23.9 °C 22.9 °C 21.8 °C 20000 m 0   0 cm 0 min 0 W/m² 1024.6 hPa
01:42 16.9 °C 13.6 °C 81 % 3 km/h (3 km/h) 0 mm0 mm 23.9 °C 24 °C 22.9 °C 21.8 °C 20000 m 0   0 cm 0 min 0 W/m² 1024.6 hPa
01:36 16.8 °C 13.3 °C 80 % 2 km/h (3 km/h) 0 mm0 mm 23.9 °C 23.9 °C 22.9 °C 21.8 °C 20000 m 0   0 cm 0 min 0 W/m² 1024.6 hPa
01:30 17 °C 13.7 °C 81 % 2 km/h (3 km/h) 0 mm0 mm 23.9 °C 24 °C 22.9 °C 21.8 °C 20000 m 0   0 cm 0 min 0 W/m² 1024.5 hPa
01:24 17.2 °C 13.7 °C 80 % 2 km/h (4 km/h) 0 mm0 mm 24 °C 24 °C 22.9 °C 21.8 °C 20000 m 0   0 cm 0 min 0 W/m² 1024.5 hPa
01:18 17.2 °C 13.5 °C 79 % 3 km/h (4 km/h) 0 mm0 mm 24 °C 24 °C 22.9 °C 21.8 °C 20000 m 0   0 cm 0 min 0 W/m² 1024.5 hPa
01:12 17.3 °C 13.4 °C 78 % 3 km/h (4 km/h) 0 mm0 mm 24 °C 24 °C 22.9 °C 21.8 °C 20000 m 0   0 cm 0 min 0 W/m² 1024.5 hPa
01:06 17.5 °C 13.8 °C 79 % 2 km/h (3 km/h) 0 mm0 mm 24 °C 24 °C 22.9 °C 21.8 °C 20000 m 0   0 cm 0 min 0 W/m² 1024.5 hPa
01:00 17.5 °C 13.6 °C 78 % 2 km/h (3 km/h) 0 mm0 mm 24.1 °C 24 °C 22.9 °C 21.8 °C 20000 m 0   0 cm 0 min 0 W/m² 1024.5 hPa
00:54 17.5 °C 13.6 °C 78 % 2 km/h (3 km/h) 0 mm0 mm 24.1 °C 24 °C 22.8 °C 21.8 °C 20000 m 0   0 cm 0 min 0 W/m² 1024.4 hPa
00:48 17.6 °C 13.7 °C 78 % 2 km/h (3 km/h) 0 mm0 mm 24.2 °C 24 °C 22.9 °C 21.8 °C 20000 m 0   0 cm 0 min 0 W/m² 1024.3 hPa
00:42 17.7 °C 13.8 °C 78 % 2 km/h (3 km/h) 0 mm0 mm 24.2 °C 24 °C 22.8 °C 21.8 °C 20000 m 0   0 cm 0 min 0 W/m² 1024.3 hPa
00:36 17.8 °C 13.9 °C 78 % 2 km/h (3 km/h) 0 mm0 mm 24.2 °C 24.1 °C 22.9 °C 21.8 °C 20000 m 0   0 cm 0 min 0 W/m² 1024.2 hPa
00:30 18 °C 13.9 °C 77 % 3 km/h (5 km/h) 0 mm0 mm 24.2 °C 24 °C 22.8 °C 21.8 °C 20000 m 0   0 cm 0 min 0 W/m² 1024 hPa
00:24 18.1 °C 14 °C 77 % 3 km/h (4 km/h) 0 mm0 mm 24.3 °C 24.1 °C 22.8 °C 21.8 °C 20000 m 0   0 cm 0 min 0 W/m² 1024 hPa
00:18 18.1 °C 14.2 °C 78 % 3 km/h (4 km/h) 0 mm0 mm 24.3 °C 24.1 °C 22.9 °C 21.8 °C 20000 m 0   0 cm 0 min 0 W/m² 1024 hPa
00:12 18 °C 14.1 °C 78 % 3 km/h (4 km/h) 0 mm0 mm 24.3 °C 24.1 °C 22.8 °C 21.8 °C 20000 m 0   0 cm 0 min 0 W/m² 1024 hPa
00:06 18.1 °C 13.8 °C 76 % 3 km/h (4 km/h) 0 mm0 mm 24.4 °C 24.1 °C 22.8 °C 21.8 °C 20000 m 0   0 cm 0 min 0 W/m² 1023.9 hPa
00:00 18.6 °C 14.5 °C 77 % 2 km/h (3 km/h) 0 mm0 mm 24.4 °C 24.1 °C 22.8 °C 21.8 °C 20000 m 0   0 cm 0 min 0 W/m² 1023.8 hPa

Données via Météo-France

Relevés météo à Auch

Cette page rassemble les observations de la station de Auch : température, humidité, vent, précipitations et pression atmosphérique. Les graphiques facilitent le suivi de la journée, tandis que le tableau donne accès aux mesures horaires et infra-horaires disponibles.

Pour replacer ces mesures dans leur contexte, consultez la climatologie de Auch ainsi que ses normales et records. Retrouvez aussi la carte des observations météo en temps réel.